sensor_id;sensor_type;location;lat;lon;timestamp;temperature;humidity
22674;DHT22;11504;43.334;21.918;2023-06-22T00:04:01;22.8;100.0
22674;DHT22;11504;43.334;21.918;2023-06-22T00:08:38;22.8;100.0
22674;DHT22;11504;43.334;21.918;2023-06-22T00:13:14;22.8;100.0
22674;DHT22;11504;43.334;21.918;2023-06-22T00:17:52;22.6;100.0
22674;DHT22;11504;43.334;21.918;2023-06-22T00:22:29;22.6;100.0
22674;DHT22;11504;43.334;21.918;2023-06-22T00:27:05;22.5;100.0
22674;DHT22;11504;43.334;21.918;2023-06-22T00:31:42;22.5;100.0
22674;DHT22;11504;43.334;21.918;2023-06-22T00:36:19;22.5;100.0
22674;DHT22;11504;43.334;21.918;2023-06-22T00:40:55;22.5;100.0
22674;DHT22;11504;43.334;21.918;2023-06-22T00:45:32;22.5;100.0
22674;DHT22;11504;43.334;21.918;2023-06-22T00:50:10;22.5;100.0
22674;DHT22;11504;43.334;21.918;2023-06-22T00:55:02;22.5;100.0
22674;DHT22;11504;43.334;21.918;2023-06-22T00:59:43;22.6;100.0
22674;DHT22;11504;43.334;21.918;2023-06-22T01:04:34;22.6;100.0
22674;DHT22;11504;43.334;21.918;2023-06-22T01:09:19;22.6;100.0
22674;DHT22;11504;43.334;21.918;2023-06-22T01:14:28;22.6;100.0
22674;DHT22;11504;43.334;21.918;2023-06-22T01:19:38;22.4;100.0
22674;DHT22;11504;43.334;21.918;2023-06-22T01:24:33;22.4;100.0
22674;DHT22;11504;43.334;21.918;2023-06-22T01:29:48;22.2;100.0
22674;DHT22;11504;43.334;21.918;2023-06-22T01:34:38;22.2;100.0
22674;DHT22;11504;43.334;21.918;2023-06-22T01:39:19;22.0;100.0
22674;DHT22;11504;43.334;21.918;2023-06-22T01:44:00;22.0;100.0
22674;DHT22;11504;43.334;21.918;2023-06-22T01:48:43;21.8;100.0
22674;DHT22;11504;43.334;21.918;2023-06-22T01:53:21;21.8;100.0
22674;DHT22;11504;43.334;21.918;2023-06-22T01:57:59;21.8;100.0
22674;DHT22;11504;43.334;21.918;2023-06-22T02:02:40;21.8;100.0
22674;DHT22;11504;43.334;21.918;2023-06-22T02:07:49;21.7;100.0
22674;DHT22;11504;43.334;21.918;2023-06-22T02:12:54;21.7;100.0
22674;DHT22;11504;43.334;21.918;2023-06-22T02:17:45;21.8;100.0
22674;DHT22;11504;43.334;21.918;2023-06-22T02:22:24;21.8;100.0
22674;DHT22;11504;43.334;21.918;2023-06-22T02:27:02;21.8;100.0
22674;DHT22;11504;43.334;21.918;2023-06-22T02:31:41;21.8;100.0
22674;DHT22;11504;43.334;21.918;2023-06-22T02:36:18;21.8;100.0
22674;DHT22;11504;43.334;21.918;2023-06-22T02:40:54;21.6;100.0
22674;DHT22;11504;43.334;21.918;2023-06-22T02:45:31;21.6;100.0
22674;DHT22;11504;43.334;21.918;2023-06-22T02:50:08;21.4;100.0
22674;DHT22;11504;43.334;21.918;2023-06-22T02:54:45;21.4;100.0
22674;DHT22;11504;43.334;21.918;2023-06-22T02:59:22;21.2;100.0
22674;DHT22;11504;43.334;21.918;2023-06-22T03:03:59;21.2;100.0
22674;DHT22;11504;43.334;21.918;2023-06-22T03:08:35;21.1;100.0
22674;DHT22;11504;43.334;21.918;2023-06-22T03:13:12;21.1;100.0
22674;DHT22;11504;43.334;21.918;2023-06-22T03:17:48;21.0;100.0
22674;DHT22;11504;43.334;21.918;2023-06-22T03:22:25;21.0;100.0
22674;DHT22;11504;43.334;21.918;2023-06-22T03:27:02;20.9;100.0
22674;DHT22;11504;43.334;21.918;2023-06-22T03:31:41;20.9;100.0
22674;DHT22;11504;43.334;21.918;2023-06-22T03:36:18;20.9;100.0
22674;DHT22;11504;43.334;21.918;2023-06-22T03:40:55;21.0;100.0
22674;DHT22;11504;43.334;21.918;2023-06-22T03:45:32;21.0;100.0
22674;DHT22;11504;43.334;21.918;2023-06-22T03:50:09;21.0;100.0
22674;DHT22;11504;43.334;21.918;2023-06-22T03:54:46;21.0;100.0
22674;DHT22;11504;43.334;21.918;2023-06-22T03:59:22;21.2;100.0
22674;DHT22;11504;43.334;21.918;2023-06-22T04:04:00;21.2;100.0
22674;DHT22;11504;43.334;21.918;2023-06-22T04:08:37;21.5;100.0
22674;DHT22;11504;43.334;21.918;2023-06-22T04:13:13;21.5;100.0
22674;DHT22;11504;43.334;21.918;2023-06-22T04:17:50;23.2;100.0
22674;DHT22;11504;43.334;21.918;2023-06-22T04:22:27;23.2;100.0
22674;DHT22;11504;43.334;21.918;2023-06-22T04:27:05;24.8;100.0
22674;DHT22;11504;43.334;21.918;2023-06-22T04:31:42;24.8;100.0
22674;DHT22;11504;43.334;21.918;2023-06-22T04:36:18;24.8;100.0
22674;DHT22;11504;43.334;21.918;2023-06-22T04:40:55;26.6;100.0
22674;DHT22;11504;43.334;21.918;2023-06-22T04:45:32;26.6;100.0
22674;DHT22;11504;43.334;21.918;2023-06-22T04:50:09;28.5;100.0
22674;DHT22;11504;43.334;21.918;2023-06-22T04:54:47;28.5;100.0
22674;DHT22;11504;43.334;21.918;2023-06-22T04:59:27;27.4;100.0
22674;DHT22;11504;43.334;21.918;2023-06-22T05:04:07;27.4;100.0
22674;DHT22;11504;43.334;21.918;2023-06-22T05:08:44;26.3;100.0
22674;DHT22;11504;43.334;21.918;2023-06-22T05:13:21;26.3;100.0
22674;DHT22;11504;43.334;21.918;2023-06-22T05:17:57;28.8;100.0
22674;DHT22;11504;43.334;21.918;2023-06-22T05:22:33;28.8;100.0
22674;DHT22;11504;43.334;21.918;2023-06-22T05:27:09;31.2;100.0
22674;DHT22;11504;43.334;21.918;2023-06-22T05:31:46;31.2;100.0
22674;DHT22;11504;43.334;21.918;2023-06-22T05:36:23;31.2;100.0
22674;DHT22;11504;43.334;21.918;2023-06-22T05:40:59;33.2;100.0
22674;DHT22;11504;43.334;21.918;2023-06-22T05:45:36;33.2;100.0
22674;DHT22;11504;43.334;21.918;2023-06-22T05:50:12;35.2;100.0
22674;DHT22;11504;43.334;21.918;2023-06-22T05:54:49;35.2;100.0
22674;DHT22;11504;43.334;21.918;2023-06-22T05:59:25;35.8;100.0
22674;DHT22;11504;43.334;21.918;2023-06-22T06:04:02;35.8;100.0
22674;DHT22;11504;43.334;21.918;2023-06-22T06:08:40;36.5;100.0
22674;DHT22;11504;43.334;21.918;2023-06-22T06:13:17;36.5;100.0
22674;DHT22;11504;43.334;21.918;2023-06-22T06:17:54;36.1;100.0
22674;DHT22;11504;43.334;21.918;2023-06-22T06:22:30;36.1;100.0
22674;DHT22;11504;43.334;21.918;2023-06-22T06:27:07;35.7;100.0
22674;DHT22;11504;43.334;21.918;2023-06-22T06:31:44;35.7;100.0
22674;DHT22;11504;43.334;21.918;2023-06-22T06:36:20;35.7;100.0
22674;DHT22;11504;43.334;21.918;2023-06-22T06:40:58;35.4;100.0
22674;DHT22;11504;43.334;21.918;2023-06-22T06:45:35;35.4;100.0
22674;DHT22;11504;43.334;21.918;2023-06-22T06:50:12;35.0;100.0
22674;DHT22;11504;43.334;21.918;2023-06-22T06:54:48;35.0;100.0
22674;DHT22;11504;43.334;21.918;2023-06-22T06:59:25;35.0;100.0
22674;DHT22;11504;43.334;21.918;2023-06-22T07:04:02;35.0;100.0
22674;DHT22;11504;43.334;21.918;2023-06-22T07:08:39;35.1;100.0
22674;DHT22;11504;43.334;21.918;2023-06-22T07:13:16;35.1;100.0
22674;DHT22;11504;43.334;21.918;2023-06-22T07:17:53;34.9;100.0
22674;DHT22;11504;43.334;21.918;2023-06-22T07:22:29;34.9;100.0
22674;DHT22;11504;43.334;21.918;2023-06-22T07:27:06;34.7;100.0
22674;DHT22;11504;43.334;21.918;2023-06-22T07:31:43;34.7;100.0
22674;DHT22;11504;43.334;21.918;2023-06-22T07:36:28;34.7;100.0
22674;DHT22;11504;43.334;21.918;2023-06-22T07:41:05;34.8;100.0
22674;DHT22;11504;43.334;21.918;2023-06-22T07:45:48;34.8;100.0
22674;DHT22;11504;43.334;21.918;2023-06-22T07:50:25;34.9;100.0
22674;DHT22;11504;43.334;21.918;2023-06-22T07:55:02;34.9;100.0
22674;DHT22;11504;43.334;21.918;2023-06-22T07:59:41;34.8;100.0
22674;DHT22;11504;43.334;21.918;2023-06-22T08:04:17;34.8;100.0
22674;DHT22;11504;43.334;21.918;2023-06-22T08:08:54;34.8;100.0
22674;DHT22;11504;43.334;21.918;2023-06-22T08:13:30;34.8;100.0
22674;DHT22;11504;43.334;21.918;2023-06-22T08:18:07;35.0;100.0
22674;DHT22;11504;43.334;21.918;2023-06-22T08:22:43;35.0;100.0
22674;DHT22;11504;43.334;21.918;2023-06-22T08:27:20;35.3;100.0
22674;DHT22;11504;43.334;21.918;2023-06-22T08:31:56;35.3;100.0
22674;DHT22;11504;43.334;21.918;2023-06-22T08:36:33;35.3;100.0
22674;DHT22;11504;43.334;21.918;2023-06-22T08:41:10;35.2;100.0
22674;DHT22;11504;43.334;21.918;2023-06-22T08:45:47;35.2;100.0
22674;DHT22;11504;43.334;21.918;2023-06-22T08:50:24;35.2;100.0
22674;DHT22;11504;43.334;21.918;2023-06-22T08:55:02;35.2;100.0
22674;DHT22;11504;43.334;21.918;2023-06-22T08:59:44;35.2;100.0
22674;DHT22;11504;43.334;21.918;2023-06-22T09:04:21;35.2;100.0
22674;DHT22;11504;43.334;21.918;2023-06-22T09:08:59;35.3;100.0
22674;DHT22;11504;43.334;21.918;2023-06-22T09:13:37;35.3;100.0
22674;DHT22;11504;43.334;21.918;2023-06-22T09:18:14;35.3;100.0
22674;DHT22;11504;43.334;21.918;2023-06-22T09:22:51;35.3;100.0
22674;DHT22;11504;43.334;21.918;2023-06-22T09:27:27;35.4;100.0
22674;DHT22;11504;43.334;21.918;2023-06-22T09:32:05;35.4;100.0
22674;DHT22;11504;43.334;21.918;2023-06-22T09:36:44;35.4;100.0
22674;DHT22;11504;43.334;21.918;2023-06-22T09:41:21;35.3;100.0
22674;DHT22;11504;43.334;21.918;2023-06-22T09:45:59;35.3;100.0
22674;DHT22;11504;43.334;21.918;2023-06-22T09:50:36;35.2;100.0
22674;DHT22;11504;43.334;21.918;2023-06-22T09:55:13;35.2;100.0
22674;DHT22;11504;43.334;21.918;2023-06-22T09:59:51;35.1;100.0
22674;DHT22;11504;43.334;21.918;2023-06-22T10:04:28;35.1;100.0
22674;DHT22;11504;43.334;21.918;2023-06-22T10:09:05;35.0;100.0
22674;DHT22;11504;43.334;21.918;2023-06-22T10:13:43;35.0;100.0
22674;DHT22;11504;43.334;21.918;2023-06-22T10:18:20;35.0;100.0
22674;DHT22;11504;43.334;21.918;2023-06-22T10:22:57;35.0;100.0
22674;DHT22;11504;43.334;21.918;2023-06-22T10:27:34;35.0;100.0
22674;DHT22;11504;43.334;21.918;2023-06-22T10:32:11;35.0;100.0
22674;DHT22;11504;43.334;21.918;2023-06-22T10:36:48;35.0;100.0
22674;DHT22;11504;43.334;21.918;2023-06-22T10:41:24;35.0;100.0
22674;DHT22;11504;43.334;21.918;2023-06-22T10:46:01;35.0;100.0
22674;DHT22;11504;43.334;21.918;2023-06-22T10:50:37;34.9;100.0
22674;DHT22;11504;43.334;21.918;2023-06-22T10:55:14;34.9;100.0
22674;DHT22;11504;43.334;21.918;2023-06-22T10:59:50;34.6;100.0
22674;DHT22;11504;43.334;21.918;2023-06-22T11:04:27;34.6;100.0
22674;DHT22;11504;43.334;21.918;2023-06-22T11:09:04;34.4;100.0
22674;DHT22;11504;43.334;21.918;2023-06-22T11:13:41;34.4;100.0
22674;DHT22;11504;43.334;21.918;2023-06-22T11:18:17;34.3;100.0
22674;DHT22;11504;43.334;21.918;2023-06-22T11:22:54;34.3;100.0
22674;DHT22;11504;43.334;21.918;2023-06-22T11:27:31;34.3;100.0
22674;DHT22;11504;43.334;21.918;2023-06-22T11:32:09;34.3;100.0
22674;DHT22;11504;43.334;21.918;2023-06-22T11:36:46;34.3;100.0
22674;DHT22;11504;43.334;21.918;2023-06-22T11:41:23;34.2;100.0
22674;DHT22;11504;43.334;21.918;2023-06-22T11:46:00;34.2;100.0
22674;DHT22;11504;43.334;21.918;2023-06-22T11:50:40;34.2;100.0
22674;DHT22;11504;43.334;21.918;2023-06-22T11:55:16;34.2;100.0
22674;DHT22;11504;43.334;21.918;2023-06-22T11:59:53;34.4;100.0
22674;DHT22;11504;43.334;21.918;2023-06-22T12:04:29;34.4;100.0
22674;DHT22;11504;43.334;21.918;2023-06-22T12:09:06;34.7;100.0
22674;DHT22;11504;43.334;21.918;2023-06-22T12:13:43;34.7;100.0
22674;DHT22;11504;43.334;21.918;2023-06-22T12:18:20;34.8;100.0
22674;DHT22;11504;43.334;21.918;2023-06-22T12:22:57;34.8;100.0
22674;DHT22;11504;43.334;21.918;2023-06-22T12:27:34;34.8;100.0
22674;DHT22;11504;43.334;21.918;2023-06-22T12:32:14;34.8;100.0
22674;DHT22;11504;43.334;21.918;2023-06-22T12:36:51;34.8;100.0
22674;DHT22;11504;43.334;21.918;2023-06-22T12:41:27;34.7;100.0
22674;DHT22;11504;43.334;21.918;2023-06-22T12:46:04;34.7;100.0
22674;DHT22;11504;43.334;21.918;2023-06-22T12:50:41;34.6;100.0
22674;DHT22;11504;43.334;21.918;2023-06-22T12:55:19;34.6;100.0
22674;DHT22;11504;43.334;21.918;2023-06-22T12:59:55;34.6;100.0
22674;DHT22;11504;43.334;21.918;2023-06-22T13:04:32;34.6;100.0
22674;DHT22;11504;43.334;21.918;2023-06-22T13:09:09;34.6;100.0
22674;DHT22;11504;43.334;21.918;2023-06-22T13:13:46;34.6;100.0
22674;DHT22;11504;43.334;21.918;2023-06-22T13:18:23;34.6;100.0
22674;DHT22;11504;43.334;21.918;2023-06-22T13:23:00;34.6;100.0
22674;DHT22;11504;43.334;21.918;2023-06-22T13:27:36;34.5;100.0
22674;DHT22;11504;43.334;21.918;2023-06-22T13:32:12;34.5;100.0
22674;DHT22;11504;43.334;21.918;2023-06-22T13:36:49;34.5;100.0
22674;DHT22;11504;43.334;21.918;2023-06-22T13:41:25;34.0;100.0
22674;DHT22;11504;43.334;21.918;2023-06-22T13:46:02;34.0;100.0
22674;DHT22;11504;43.334;21.918;2023-06-22T13:50:38;33.6;100.0
22674;DHT22;11504;43.334;21.918;2023-06-22T13:55:15;33.6;100.0
22674;DHT22;11504;43.334;21.918;2023-06-22T13:59:52;33.4;100.0
22674;DHT22;11504;43.334;21.918;2023-06-22T14:04:29;33.4;100.0
22674;DHT22;11504;43.334;21.918;2023-06-22T14:09:06;33.2;100.0
22674;DHT22;11504;43.334;21.918;2023-06-22T14:13:42;33.2;100.0
22674;DHT22;11504;43.334;21.918;2023-06-22T14:18:19;33.4;100.0
22674;DHT22;11504;43.334;21.918;2023-06-22T14:22:56;33.4;100.0
22674;DHT22;11504;43.334;21.918;2023-06-22T14:27:32;33.5;100.0
22674;DHT22;11504;43.334;21.918;2023-06-22T14:32:09;33.5;100.0
22674;DHT22;11504;43.334;21.918;2023-06-22T14:36:46;33.5;100.0
22674;DHT22;11504;43.334;21.918;2023-06-22T14:41:22;33.4;100.0
22674;DHT22;11504;43.334;21.918;2023-06-22T14:45:59;33.4;100.0
22674;DHT22;11504;43.334;21.918;2023-06-22T14:50:36;33.2;100.0
22674;DHT22;11504;43.334;21.918;2023-06-22T14:55:13;33.2;100.0
22674;DHT22;11504;43.334;21.918;2023-06-22T14:59:49;32.8;100.0
22674;DHT22;11504;43.334;21.918;2023-06-22T15:04:26;32.8;100.0
22674;DHT22;11504;43.334;21.918;2023-06-22T15:09:02;32.5;100.0
22674;DHT22;11504;43.334;21.918;2023-06-22T15:13:40;32.5;100.0
22674;DHT22;11504;43.334;21.918;2023-06-22T15:18:18;32.2;100.0
22674;DHT22;11504;43.334;21.918;2023-06-22T15:22:56;32.2;100.0
22674;DHT22;11504;43.334;21.918;2023-06-22T15:27:34;32.0;100.0
22674;DHT22;11504;43.334;21.918;2023-06-22T15:32:11;32.0;100.0
22674;DHT22;11504;43.334;21.918;2023-06-22T15:36:48;32.0;100.0
22674;DHT22;11504;43.334;21.918;2023-06-22T15:41:24;32.0;100.0
22674;DHT22;11504;43.334;21.918;2023-06-22T15:46:01;32.0;100.0
22674;DHT22;11504;43.334;21.918;2023-06-22T15:50:38;31.9;100.0
22674;DHT22;11504;43.334;21.918;2023-06-22T15:55:15;31.9;100.0
22674;DHT22;11504;43.334;21.918;2023-06-22T15:59:54;31.8;100.0
22674;DHT22;11504;43.334;21.918;2023-06-22T16:04:31;31.8;100.0
22674;DHT22;11504;43.334;21.918;2023-06-22T16:09:08;31.7;100.0
22674;DHT22;11504;43.334;21.918;2023-06-22T16:13:44;31.7;100.0
22674;DHT22;11504;43.334;21.918;2023-06-22T16:18:20;31.6;100.0
22674;DHT22;11504;43.334;21.918;2023-06-22T16:22:57;31.6;100.0
22674;DHT22;11504;43.334;21.918;2023-06-22T16:27:33;31.6;100.0
22674;DHT22;11504;43.334;21.918;2023-06-22T16:32:10;31.6;100.0
22674;DHT22;11504;43.334;21.918;2023-06-22T16:36:47;31.6;100.0
22674;DHT22;11504;43.334;21.918;2023-06-22T16:41:24;31.6;100.0
22674;DHT22;11504;43.334;21.918;2023-06-22T16:46:00;31.6;100.0
22674;DHT22;11504;43.334;21.918;2023-06-22T16:50:37;31.5;100.0
22674;DHT22;11504;43.334;21.918;2023-06-22T16:55:14;31.5;100.0
22674;DHT22;11504;43.334;21.918;2023-06-22T16:59:52;31.4;100.0
22674;DHT22;11504;43.334;21.918;2023-06-22T17:04:29;31.4;100.0
22674;DHT22;11504;43.334;21.918;2023-06-22T17:09:21;31.3;100.0
22674;DHT22;11504;43.334;21.918;2023-06-22T17:14:02;31.3;100.0
22674;DHT22;11504;43.334;21.918;2023-06-22T17:18:41;31.2;100.0
22674;DHT22;11504;43.334;21.918;2023-06-22T17:23:20;31.2;100.0
22674;DHT22;11504;43.334;21.918;2023-06-22T17:28:03;31.0;100.0
22674;DHT22;11504;43.334;21.918;2023-06-22T17:32:45;31.0;100.0
22674;DHT22;11504;43.334;21.918;2023-06-22T17:37:24;31.0;100.0
22674;DHT22;11504;43.334;21.918;2023-06-22T17:42:01;30.8;100.0
22674;DHT22;11504;43.334;21.918;2023-06-22T17:46:44;30.8;100.0
22674;DHT22;11504;43.334;21.918;2023-06-22T17:51:20;30.6;100.0
22674;DHT22;11504;43.334;21.918;2023-06-22T17:55:59;30.6;100.0
22674;DHT22;11504;43.334;21.918;2023-06-22T18:00:36;30.2;100.0
22674;DHT22;11504;43.334;21.918;2023-06-22T18:05:16;30.2;100.0
22674;DHT22;11504;43.334;21.918;2023-06-22T18:10:07;29.9;100.0
22674;DHT22;11504;43.334;21.918;2023-06-22T18:14:46;29.9;100.0
22674;DHT22;11504;43.334;21.918;2023-06-22T18:19:26;29.6;100.0
22674;DHT22;11504;43.334;21.918;2023-06-22T18:24:13;29.6;100.0
22674;DHT22;11504;43.334;21.918;2023-06-22T18:28:56;29.3;100.0
22674;DHT22;11504;43.334;21.918;2023-06-22T18:33:34;29.3;100.0
22674;DHT22;11504;43.334;21.918;2023-06-22T18:38:10;29.0;100.0
22674;DHT22;11504;43.334;21.918;2023-06-22T18:42:49;29.0;100.0
22674;DHT22;11504;43.334;21.918;2023-06-22T18:47:26;29.0;100.0
22674;DHT22;11504;43.334;21.918;2023-06-22T18:52:14;28.6;100.0
22674;DHT22;11504;43.334;21.918;2023-06-22T18:57:02;28.6;100.0
22674;DHT22;11504;43.334;21.918;2023-06-22T19:01:52;28.3;100.0
22674;DHT22;11504;43.334;21.918;2023-06-22T19:06:54;28.3;100.0
22674;DHT22;11504;43.334;21.918;2023-06-22T19:11:31;28.0;100.0
22674;DHT22;11504;43.334;21.918;2023-06-22T19:16:08;28.0;100.0
22674;DHT22;11504;43.334;21.918;2023-06-22T19:20:46;27.8;100.0
22674;DHT22;11504;43.334;21.918;2023-06-22T19:25:35;27.8;100.0
22674;DHT22;11504;43.334;21.918;2023-06-22T19:30:22;27.5;100.0
22674;DHT22;11504;43.334;21.918;2023-06-22T19:35:01;27.5;100.0
22674;DHT22;11504;43.334;21.918;2023-06-22T19:39:44;27.4;100.0
22674;DHT22;11504;43.334;21.918;2023-06-22T19:44:21;27.4;100.0
22674;DHT22;11504;43.334;21.918;2023-06-22T19:49:04;27.3;100.0
22674;DHT22;11504;43.334;21.918;2023-06-22T19:53:40;27.3;100.0
22674;DHT22;11504;43.334;21.918;2023-06-22T19:58:18;27.2;100.0
22674;DHT22;11504;43.334;21.918;2023-06-22T20:02:57;27.2;100.0
22674;DHT22;11504;43.334;21.918;2023-06-22T20:07:35;27.2;100.0
22674;DHT22;11504;43.334;21.918;2023-06-22T20:12:22;27.1;100.0
22674;DHT22;11504;43.334;21.918;2023-06-22T20:16:59;27.1;100.0
22674;DHT22;11504;43.334;21.918;2023-06-22T20:21:36;27.0;100.0
22674;DHT22;11504;43.334;21.918;2023-06-22T20:26:17;27.0;100.0
22674;DHT22;11504;43.334;21.918;2023-06-22T20:31:02;26.9;100.0
22674;DHT22;11504;43.334;21.918;2023-06-22T20:35:44;26.9;100.0
22674;DHT22;11504;43.334;21.918;2023-06-22T20:40:22;26.8;100.0
22674;DHT22;11504;43.334;21.918;2023-06-22T20:45:01;26.8;100.0
22674;DHT22;11504;43.334;21.918;2023-06-22T20:49:43;26.6;100.0
22674;DHT22;11504;43.334;21.918;2023-06-22T20:54:19;26.6;100.0
22674;DHT22;11504;43.334;21.918;2023-06-22T20:58:57;26.4;100.0
22674;DHT22;11504;43.334;21.918;2023-06-22T21:03:33;26.4;100.0
22674;DHT22;11504;43.334;21.918;2023-06-22T21:08:10;26.2;100.0
22674;DHT22;11504;43.334;21.918;2023-06-22T21:12:48;26.2;100.0
22674;DHT22;11504;43.334;21.918;2023-06-22T21:17:25;26.2;100.0
22674;DHT22;11504;43.334;21.918;2023-06-22T21:22:02;26.0;100.0
22674;DHT22;11504;43.334;21.918;2023-06-22T21:26:40;26.0;100.0
22674;DHT22;11504;43.334;21.918;2023-06-22T21:31:17;25.9;100.0
22674;DHT22;11504;43.334;21.918;2023-06-22T21:35:54;25.9;100.0
22674;DHT22;11504;43.334;21.918;2023-06-22T21:40:30;25.6;100.0
22674;DHT22;11504;43.334;21.918;2023-06-22T21:45:08;25.6;100.0
22674;DHT22;11504;43.334;21.918;2023-06-22T21:49:45;25.4;100.0
22674;DHT22;11504;43.334;21.918;2023-06-22T21:54:22;25.4;100.0
22674;DHT22;11504;43.334;21.918;2023-06-22T21:58:58;25.3;100.0
22674;DHT22;11504;43.334;21.918;2023-06-22T22:03:35;25.3;100.0
22674;DHT22;11504;43.334;21.918;2023-06-22T22:08:12;25.2;100.0
22674;DHT22;11504;43.334;21.918;2023-06-22T22:12:51;25.2;100.0
22674;DHT22;11504;43.334;21.918;2023-06-22T22:17:28;25.2;100.0
22674;DHT22;11504;43.334;21.918;2023-06-22T22:22:04;25.0;100.0
22674;DHT22;11504;43.334;21.918;2023-06-22T22:26:42;25.0;100.0
22674;DHT22;11504;43.334;21.918;2023-06-22T22:31:18;24.9;100.0
22674;DHT22;11504;43.334;21.918;2023-06-22T22:35:55;24.9;100.0
22674;DHT22;11504;43.334;21.918;2023-06-22T22:40:32;24.7;100.0
22674;DHT22;11504;43.334;21.918;2023-06-22T22:45:09;24.7;100.0
22674;DHT22;11504;43.334;21.918;2023-06-22T22:49:46;24.5;100.0
22674;DHT22;11504;43.334;21.918;2023-06-22T22:54:23;24.5;100.0
22674;DHT22;11504;43.334;21.918;2023-06-22T22:59:00;24.4;100.0
22674;DHT22;11504;43.334;21.918;2023-06-22T23:03:37;24.4;100.0
22674;DHT22;11504;43.334;21.918;2023-06-22T23:08:13;24.3;100.0
22674;DHT22;11504;43.334;21.918;2023-06-22T23:12:50;24.3;100.0
22674;DHT22;11504;43.334;21.918;2023-06-22T23:17:27;24.3;100.0
22674;DHT22;11504;43.334;21.918;2023-06-22T23:22:04;24.2;100.0
22674;DHT22;11504;43.334;21.918;2023-06-22T23:26:42;24.2;100.0
22674;DHT22;11504;43.334;21.918;2023-06-22T23:31:18;24.0;100.0
22674;DHT22;11504;43.334;21.918;2023-06-22T23:35:55;24.0;100.0
22674;DHT22;11504;43.334;21.918;2023-06-22T23:40:32;23.8;100.0
22674;DHT22;11504;43.334;21.918;2023-06-22T23:45:09;23.8;100.0
22674;DHT22;11504;43.334;21.918;2023-06-22T23:49:46;23.7;100.0
22674;DHT22;11504;43.334;21.918;2023-06-22T23:54:22;23.7;100.0
22674;DHT22;11504;43.334;21.918;2023-06-22T23:58:59;23.4;100.0
